sensor_id;sensor_type;location;lat;lon;timestamp;temperature;humidity
71096;DHT22;58753;49.440;11.126;2023-07-29T00:01:50;17.21;93.42
71096;DHT22;58753;49.440;11.126;2023-07-29T00:04:16;17.20;93.49
71096;DHT22;58753;49.440;11.126;2023-07-29T00:06:42;17.15;93.47
71096;DHT22;58753;49.440;11.126;2023-07-29T00:09:12;17.14;93.49
71096;DHT22;58753;49.440;11.126;2023-07-29T00:11:40;17.13;93.52
71096;DHT22;58753;49.440;11.126;2023-07-29T00:14:05;17.11;93.57
71096;DHT22;58753;49.440;11.126;2023-07-29T00:16:33;17.08;93.58
71096;DHT22;58753;49.440;11.126;2023-07-29T00:18:58;17.08;93.67
71096;DHT22;58753;49.440;11.126;2023-07-29T00:21:24;17.11;93.70
71096;DHT22;58753;49.440;11.126;2023-07-29T00:23:49;17.07;93.67
71096;DHT22;58753;49.440;11.126;2023-07-29T00:26:15;17.06;93.67
71096;DHT22;58753;49.440;11.126;2023-07-29T00:28:42;17.04;93.72
71096;DHT22;58753;49.440;11.126;2023-07-29T00:31:08;17.00;93.68
71096;DHT22;58753;49.440;11.126;2023-07-29T00:33:33;17.03;93.80
71096;DHT22;58753;49.440;11.126;2023-07-29T00:36:01;17.03;93.78
71096;DHT22;58753;49.440;11.126;2023-07-29T00:38:30;17.03;93.72
71096;DHT22;58753;49.440;11.126;2023-07-29T00:40:57;17.00;93.81
71096;DHT22;58753;49.440;11.126;2023-07-29T00:43:23;16.99;93.81
71096;DHT22;58753;49.440;11.126;2023-07-29T00:45:51;16.99;93.88
71096;DHT22;58753;49.440;11.126;2023-07-29T00:48:16;16.97;93.76
71096;DHT22;58753;49.440;11.126;2023-07-29T00:50:44;16.94;93.84
71096;DHT22;58753;49.440;11.126;2023-07-29T00:53:09;16.95;93.90
71096;DHT22;58753;49.440;11.126;2023-07-29T00:55:37;16.93;93.89
71096;DHT22;58753;49.440;11.126;2023-07-29T00:58:03;16.90;93.92
71096;DHT22;58753;49.440;11.126;2023-07-29T01:00:28;16.93;93.91
71096;DHT22;58753;49.440;11.126;2023-07-29T01:02:56;16.91;93.95
71096;DHT22;58753;49.440;11.126;2023-07-29T01:05:29;16.90;93.93
71096;DHT22;58753;49.440;11.126;2023-07-29T01:10:53;16.85;93.97
71096;DHT22;58753;49.440;11.126;2023-07-29T01:13:28;16.85;93.97
71096;DHT22;58753;49.440;11.126;2023-07-29T01:16:10;16.81;94.03
71096;DHT22;58753;49.440;11.126;2023-07-29T01:18:39;16.79;94.00
71096;DHT22;58753;49.440;11.126;2023-07-29T01:21:08;16.77;93.97
71096;DHT22;58753;49.440;11.126;2023-07-29T01:23:36;16.74;93.98
71096;DHT22;58753;49.440;11.126;2023-07-29T01:26:03;16.71;93.93
71096;DHT22;58753;49.440;11.126;2023-07-29T01:28:28;16.71;93.96
71096;DHT22;58753;49.440;11.126;2023-07-29T01:33:38;16.61;93.96
71096;DHT22;58753;49.440;11.126;2023-07-29T01:36:11;16.60;93.96
71096;DHT22;58753;49.440;11.126;2023-07-29T01:38:41;16.53;93.90
71096;DHT22;58753;49.440;11.126;2023-07-29T01:41:11;16.53;94.01
71096;DHT22;58753;49.440;11.126;2023-07-29T01:43:37;16.49;93.93
71096;DHT22;58753;49.440;11.126;2023-07-29T01:46:13;16.45;94.07
71096;DHT22;58753;49.440;11.126;2023-07-29T01:48:41;16.45;94.10
71096;DHT22;58753;49.440;11.126;2023-07-29T01:51:07;16.43;94.15
71096;DHT22;58753;49.440;11.126;2023-07-29T01:53:33;16.46;94.16
71096;DHT22;58753;49.440;11.126;2023-07-29T01:55:58;16.46;94.23
71096;DHT22;58753;49.440;11.126;2023-07-29T01:58:26;16.48;94.16
71096;DHT22;58753;49.440;11.126;2023-07-29T02:00:51;16.45;94.20
71096;DHT22;58753;49.440;11.126;2023-07-29T02:03:19;16.45;94.22
71096;DHT22;58753;49.440;11.126;2023-07-29T02:05:44;16.46;94.21
71096;DHT22;58753;49.440;11.126;2023-07-29T02:08:10;16.45;94.23
71096;DHT22;58753;49.440;11.126;2023-07-29T02:10:36;16.42;94.16
71096;DHT22;58753;49.440;11.126;2023-07-29T02:13:04;16.39;94.18
71096;DHT22;58753;49.440;11.126;2023-07-29T02:15:29;16.34;94.04
71096;DHT22;58753;49.440;11.126;2023-07-29T02:17:57;16.30;94.17
71096;DHT22;58753;49.440;11.126;2023-07-29T02:20:24;16.28;94.22
71096;DHT22;58753;49.440;11.126;2023-07-29T02:22:49;16.25;94.14
71096;DHT22;58753;49.440;11.126;2023-07-29T02:25:15;16.22;94.18
71096;DHT22;58753;49.440;11.126;2023-07-29T02:27:43;16.20;94.13
71096;DHT22;58753;49.440;11.126;2023-07-29T02:30:08;16.16;94.17
71096;DHT22;58753;49.440;11.126;2023-07-29T02:32:37;16.09;94.11
71096;DHT22;58753;49.440;11.126;2023-07-29T02:35:05;16.04;94.06
71096;DHT22;58753;49.440;11.126;2023-07-29T02:37:31;15.98;94.11
71096;DHT22;58753;49.440;11.126;2023-07-29T02:39:56;15.92;94.12
71096;DHT22;58753;49.440;11.126;2023-07-29T02:42:22;15.88;94.12
71096;DHT22;58753;49.440;11.126;2023-07-29T02:44:47;15.82;94.13
71096;DHT22;58753;49.440;11.126;2023-07-29T02:47:13;15.79;94.16
71096;DHT22;58753;49.440;11.126;2023-07-29T02:49:43;15.77;94.33
71096;DHT22;58753;49.440;11.126;2023-07-29T02:52:11;15.82;94.39
71096;DHT22;58753;49.440;11.126;2023-07-29T02:54:38;15.79;94.40
71096;DHT22;58753;49.440;11.126;2023-07-29T02:57:04;15.78;94.42
71096;DHT22;58753;49.440;11.126;2023-07-29T02:59:29;15.77;94.34
71096;DHT22;58753;49.440;11.126;2023-07-29T03:01:57;15.77;94.37
71096;DHT22;58753;49.440;11.126;2023-07-29T03:04:22;15.74;94.45
71096;DHT22;58753;49.440;11.126;2023-07-29T03:06:50;15.75;94.43
71096;DHT22;58753;49.440;11.126;2023-07-29T03:09:16;15.77;94.50
71096;DHT22;58753;49.440;11.126;2023-07-29T03:11:42;15.77;94.57
71096;DHT22;58753;49.440;11.126;2023-07-29T03:14:09;15.75;94.46
71096;DHT22;58753;49.440;11.126;2023-07-29T03:16:37;15.75;94.50
71096;DHT22;58753;49.440;11.126;2023-07-29T03:19:02;15.74;94.47
71096;DHT22;58753;49.440;11.126;2023-07-29T03:21:31;15.72;94.54
71096;DHT22;58753;49.440;11.126;2023-07-29T03:23:56;15.72;94.50
71096;DHT22;58753;49.440;11.126;2023-07-29T03:26:24;15.68;94.47
71096;DHT22;58753;49.440;11.126;2023-07-29T03:28:52;15.72;94.54
71096;DHT22;58753;49.440;11.126;2023-07-29T03:31:18;15.69;94.50
71096;DHT22;58753;49.440;11.126;2023-07-29T03:33:43;15.67;94.63
71096;DHT22;58753;49.440;11.126;2023-07-29T03:36:08;15.68;94.59
71096;DHT22;58753;49.440;11.126;2023-07-29T03:38:34;15.68;94.63
71096;DHT22;58753;49.440;11.126;2023-07-29T03:41:00;15.68;94.62
71096;DHT22;58753;49.440;11.126;2023-07-29T03:43:28;15.67;94.63
71096;DHT22;58753;49.440;11.126;2023-07-29T03:45:55;15.67;94.61
71096;DHT22;58753;49.440;11.126;2023-07-29T03:48:21;15.64;94.67
71096;DHT22;58753;49.440;11.126;2023-07-29T03:50:46;15.62;94.70
71096;DHT22;58753;49.440;11.126;2023-07-29T03:53:12;15.67;94.69
71096;DHT22;58753;49.440;11.126;2023-07-29T03:55:37;15.68;94.75
71096;DHT22;58753;49.440;11.126;2023-07-29T03:58:05;15.68;94.69
71096;DHT22;58753;49.440;11.126;2023-07-29T04:00:30;15.69;94.84
71096;DHT22;58753;49.440;11.126;2023-07-29T04:02:56;15.71;94.81
71096;DHT22;58753;49.440;11.126;2023-07-29T04:05:24;15.72;94.78
71096;DHT22;58753;49.440;11.126;2023-07-29T04:07:49;15.75;94.84
71096;DHT22;58753;49.440;11.126;2023-07-29T04:10:14;15.78;94.93
71096;DHT22;58753;49.440;11.126;2023-07-29T04:12:42;15.85;94.92
71096;DHT22;58753;49.440;11.126;2023-07-29T04:15:11;15.88;95.00
71096;DHT22;58753;49.440;11.126;2023-07-29T04:17:38;15.95;95.02
71096;DHT22;58753;49.440;11.126;2023-07-29T04:20:04;15.99;94.98
71096;DHT22;58753;49.440;11.126;2023-07-29T04:22:30;16.04;94.96
71096;DHT22;58753;49.440;11.126;2023-07-29T04:24:55;16.06;94.90
71096;DHT22;58753;49.440;11.126;2023-07-29T04:27:20;16.12;94.95
71096;DHT22;58753;49.440;11.126;2023-07-29T04:29:46;16.15;94.96
71096;DHT22;58753;49.440;11.126;2023-07-29T04:32:11;16.19;94.93
71096;DHT22;58753;49.440;11.126;2023-07-29T04:34:36;16.22;94.94
71096;DHT22;58753;49.440;11.126;2023-07-29T04:37:02;16.28;94.89
71096;DHT22;58753;49.440;11.126;2023-07-29T04:39:30;16.29;94.84
71096;DHT22;58753;49.440;11.126;2023-07-29T04:41:55;16.33;94.90
71096;DHT22;58753;49.440;11.126;2023-07-29T04:44:22;16.38;95.02
71096;DHT22;58753;49.440;11.126;2023-07-29T04:46:47;16.43;94.94
71096;DHT22;58753;49.440;11.126;2023-07-29T04:49:13;16.46;94.96
71096;DHT22;58753;49.440;11.126;2023-07-29T04:51:41;16.50;94.95
71096;DHT22;58753;49.440;11.126;2023-07-29T04:54:08;16.56;94.92
71096;DHT22;58753;49.440;11.126;2023-07-29T04:56:34;16.61;94.96
71096;DHT22;58753;49.440;11.126;2023-07-29T04:59:02;16.66;94.94
71096;DHT22;58753;49.440;11.126;2023-07-29T05:01:29;16.73;94.90
71096;DHT22;58753;49.440;11.126;2023-07-29T05:03:59;16.77;94.98
71096;DHT22;58753;49.440;11.126;2023-07-29T05:06:25;16.84;94.88
71096;DHT22;58753;49.440;11.126;2023-07-29T05:08:50;16.88;94.89
71096;DHT22;58753;49.440;11.126;2023-07-29T05:11:18;16.94;94.84
71096;DHT22;58753;49.440;11.126;2023-07-29T05:13:46;16.99;94.80
71096;DHT22;58753;49.440;11.126;2023-07-29T05:16:11;16.99;94.71
71096;DHT22;58753;49.440;11.126;2023-07-29T05:18:39;17.01;94.64
71096;DHT22;58753;49.440;11.126;2023-07-29T05:21:07;17.03;94.58
71096;DHT22;58753;49.440;11.126;2023-07-29T05:23:36;17.08;94.56
71096;DHT22;58753;49.440;11.126;2023-07-29T05:26:04;17.10;94.60
71096;DHT22;58753;49.440;11.126;2023-07-29T05:28:32;17.11;94.46
71096;DHT22;58753;49.440;11.126;2023-07-29T05:31:00;17.10;94.41
71096;DHT22;58753;49.440;11.126;2023-07-29T05:33:26;17.13;94.43
71096;DHT22;58753;49.440;11.126;2023-07-29T05:35:51;17.18;94.50
71096;DHT22;58753;49.440;11.126;2023-07-29T05:38:17;17.20;94.42
71096;DHT22;58753;49.440;11.126;2023-07-29T05:40:42;17.21;94.37
71096;DHT22;58753;49.440;11.126;2023-07-29T05:43:07;17.24;94.39
71096;DHT22;58753;49.440;11.126;2023-07-29T05:45:33;17.24;94.34
71096;DHT22;58753;49.440;11.126;2023-07-29T05:48:00;17.30;94.27
71096;DHT22;58753;49.440;11.126;2023-07-29T05:50:26;17.32;94.27
71096;DHT22;58753;49.440;11.126;2023-07-29T05:52:51;17.34;94.22
71096;DHT22;58753;49.440;11.126;2023-07-29T05:55:16;17.36;94.18
71096;DHT22;58753;49.440;11.126;2023-07-29T05:57:42;17.39;94.17
71096;DHT22;58753;49.440;11.126;2023-07-29T06:00:07;17.44;94.13
71096;DHT22;58753;49.440;11.126;2023-07-29T06:02:33;17.45;94.07
71096;DHT22;58753;49.440;11.126;2023-07-29T06:05:01;17.48;94.03
71096;DHT22;58753;49.440;11.126;2023-07-29T06:07:28;17.55;94.00
71096;DHT22;58753;49.440;11.126;2023-07-29T06:09:55;17.55;93.95
71096;DHT22;58753;49.440;11.126;2023-07-29T06:12:21;17.56;93.92
71096;DHT22;58753;49.440;11.126;2023-07-29T06:14:46;17.58;93.88
71096;DHT22;58753;49.440;11.126;2023-07-29T06:17:11;17.58;93.84
71096;DHT22;58753;49.440;11.126;2023-07-29T06:19:39;17.58;93.82
71096;DHT22;58753;49.440;11.126;2023-07-29T06:22:05;17.58;93.86
71096;DHT22;58753;49.440;11.126;2023-07-29T06:24:31;17.61;93.75
71096;DHT22;58753;49.440;11.126;2023-07-29T06:26:59;17.59;93.74
71096;DHT22;58753;49.440;11.126;2023-07-29T06:29:24;17.59;93.74
71096;DHT22;58753;49.440;11.126;2023-07-29T06:31:49;17.59;93.64
71096;DHT22;58753;49.440;11.126;2023-07-29T06:34:17;17.56;93.66
71096;DHT22;58753;49.440;11.126;2023-07-29T06:36:43;17.59;93.68
71096;DHT22;58753;49.440;11.126;2023-07-29T06:39:09;17.62;93.69
71096;DHT22;58753;49.440;11.126;2023-07-29T06:41:37;17.64;93.65
71096;DHT22;58753;49.440;11.126;2023-07-29T06:44:03;17.61;93.62
71096;DHT22;58753;49.440;11.126;2023-07-29T06:46:30;17.62;93.55
71096;DHT22;58753;49.440;11.126;2023-07-29T06:48:58;17.61;93.43
71096;DHT22;58753;49.440;11.126;2023-07-29T06:51:28;17.45;93.60
71096;DHT22;58753;49.440;11.126;2023-07-29T06:53:58;17.34;93.87
71096;DHT22;58753;49.440;11.126;2023-07-29T06:56:23;17.27;94.07
71096;DHT22;58753;49.440;11.126;2023-07-29T06:58:53;17.20;94.28
71096;DHT22;58753;49.440;11.126;2023-07-29T07:01:19;17.17;94.34
71096;DHT22;58753;49.440;11.126;2023-07-29T07:03:46;17.17;94.43
71096;DHT22;58753;49.440;11.126;2023-07-29T07:06:14;17.14;94.52
71096;DHT22;58753;49.440;11.126;2023-07-29T07:08:42;17.15;94.67
71096;DHT22;58753;49.440;11.126;2023-07-29T07:11:09;17.17;94.75
71096;DHT22;58753;49.440;11.126;2023-07-29T07:13:34;17.18;94.86
71096;DHT22;58753;49.440;11.126;2023-07-29T07:16:02;17.22;94.93
71096;DHT22;58753;49.440;11.126;2023-07-29T07:18:30;17.31;95.03
71096;DHT22;58753;49.440;11.126;2023-07-29T07:20:58;17.36;95.07
71096;DHT22;58753;49.440;11.126;2023-07-29T07:23:23;17.44;95.21
71096;DHT22;58753;49.440;11.126;2023-07-29T07:25:48;17.49;95.16
71096;DHT22;58753;49.440;11.126;2023-07-29T07:28:16;17.59;95.29
71096;DHT22;58753;49.440;11.126;2023-07-29T07:30:42;17.65;95.20
71096;DHT22;58753;49.440;11.126;2023-07-29T07:33:07;17.68;95.18
71096;DHT22;58753;49.440;11.126;2023-07-29T07:35:33;17.72;95.23
71096;DHT22;58753;49.440;11.126;2023-07-29T07:37:58;17.79;95.38
71096;DHT22;58753;49.440;11.126;2023-07-29T07:40:27;17.89;95.41
71096;DHT22;58753;49.440;11.126;2023-07-29T07:42:52;17.96;95.38
71096;DHT22;58753;49.440;11.126;2023-07-29T07:45:17;17.96;95.26
71096;DHT22;58753;49.440;11.126;2023-07-29T07:47:43;17.97;95.27
71096;DHT22;58753;49.440;11.126;2023-07-29T07:50:09;18.00;95.24
71096;DHT22;58753;49.440;11.126;2023-07-29T07:52:36;17.99;95.30
71096;DHT22;58753;49.440;11.126;2023-07-29T07:55:02;18.03;95.34
71096;DHT22;58753;49.440;11.126;2023-07-29T07:57:27;18.03;95.34
71096;DHT22;58753;49.440;11.126;2023-07-29T07:59:55;18.06;95.37
71096;DHT22;58753;49.440;11.126;2023-07-29T08:02:20;18.02;95.27
71096;DHT22;58753;49.440;11.126;2023-07-29T08:04:48;18.00;95.26
71096;DHT22;58753;49.440;11.126;2023-07-29T08:07:16;17.93;95.27
71096;DHT22;58753;49.440;11.126;2023-07-29T08:09:41;17.95;95.31
71096;DHT22;58753;49.440;11.126;2023-07-29T08:12:06;17.92;95.36
71096;DHT22;58753;49.440;11.126;2023-07-29T08:14:32;17.90;95.34
71096;DHT22;58753;49.440;11.126;2023-07-29T08:17:02;17.89;95.34
71096;DHT22;58753;49.440;11.126;2023-07-29T08:19:30;17.86;95.40
71096;DHT22;58753;49.440;11.126;2023-07-29T08:21:58;17.86;95.44
71096;DHT22;58753;49.440;11.126;2023-07-29T08:24:25;17.87;95.53
71096;DHT22;58753;49.440;11.126;2023-07-29T08:26:51;17.87;95.52
71096;DHT22;58753;49.440;11.126;2023-07-29T08:29:16;17.86;95.50
71096;DHT22;58753;49.440;11.126;2023-07-29T08:31:44;17.86;95.50
71096;DHT22;58753;49.440;11.126;2023-07-29T08:34:09;17.85;95.63
71096;DHT22;58753;49.440;11.126;2023-07-29T08:36:37;17.86;95.74
71096;DHT22;58753;49.440;11.126;2023-07-29T08:39:02;17.86;95.70
71096;DHT22;58753;49.440;11.126;2023-07-29T08:41:37;17.83;95.68
71096;DHT22;58753;49.440;11.126;2023-07-29T08:44:15;17.81;95.74
71096;DHT22;58753;49.440;11.126;2023-07-29T08:46:46;17.81;95.78
71096;DHT22;58753;49.440;11.126;2023-07-29T08:49:12;17.79;95.79
71096;DHT22;58753;49.440;11.126;2023-07-29T08:51:41;17.76;95.69
71096;DHT22;58753;49.440;11.126;2023-07-29T08:54:07;17.72;95.76
71096;DHT22;58753;49.440;11.126;2023-07-29T08:56:33;17.68;95.81
71096;DHT22;58753;49.440;11.126;2023-07-29T08:58:59;17.68;95.94
71096;DHT22;58753;49.440;11.126;2023-07-29T09:01:27;17.68;95.95
71096;DHT22;58753;49.440;11.126;2023-07-29T09:03:53;17.71;96.01
71096;DHT22;58753;49.440;11.126;2023-07-29T09:06:18;17.71;96.05
71096;DHT22;58753;49.440;11.126;2023-07-29T09:08:46;17.72;95.98
71096;DHT22;58753;49.440;11.126;2023-07-29T09:11:16;17.74;96.03
71096;DHT22;58753;49.440;11.126;2023-07-29T09:13:42;17.75;96.08
71096;DHT22;58753;49.440;11.126;2023-07-29T09:16:09;17.78;96.11
71096;DHT22;58753;49.440;11.126;2023-07-29T09:18:39;17.82;96.16
71096;DHT22;58753;49.440;11.126;2023-07-29T09:21:04;17.86;96.14
71096;DHT22;58753;49.440;11.126;2023-07-29T09:23:42;17.86;96.09
71096;DHT22;58753;49.440;11.126;2023-07-29T09:26:08;17.86;96.13
71096;DHT22;58753;49.440;11.126;2023-07-29T09:28:38;17.85;96.08
71096;DHT22;58753;49.440;11.126;2023-07-29T09:31:09;17.85;96.17
71096;DHT22;58753;49.440;11.126;2023-07-29T09:33:46;17.86;96.15
71096;DHT22;58753;49.440;11.126;2023-07-29T09:36:11;17.87;96.13
71096;DHT22;58753;49.440;11.126;2023-07-29T09:38:39;17.87;96.19
71096;DHT22;58753;49.440;11.126;2023-07-29T09:41:04;17.89;96.18
71096;DHT22;58753;49.440;11.126;2023-07-29T09:43:33;17.92;96.23
71096;DHT22;58753;49.440;11.126;2023-07-29T09:46:04;17.95;96.26
71096;DHT22;58753;49.440;11.126;2023-07-29T09:48:34;18.02;96.31
71096;DHT22;58753;49.440;11.126;2023-07-29T09:51:14;18.02;96.35
71096;DHT22;58753;49.440;11.126;2023-07-29T09:53:45;18.12;96.39
71096;DHT22;58753;49.440;11.126;2023-07-29T09:56:10;18.17;96.33
71096;DHT22;58753;49.440;11.126;2023-07-29T09:58:39;18.26;96.42
71096;DHT22;58753;49.440;11.126;2023-07-29T10:01:09;18.40;96.52
71096;DHT22;58753;49.440;11.126;2023-07-29T10:03:35;18.51;96.42
71096;DHT22;58753;49.440;11.126;2023-07-29T10:06:06;18.65;96.61
71096;DHT22;58753;49.440;11.126;2023-07-29T10:08:33;18.78;96.49
71096;DHT22;58753;49.440;11.126;2023-07-29T10:11:01;18.91;96.47
71096;DHT22;58753;49.440;11.126;2023-07-29T10:13:27;18.98;96.39
71096;DHT22;58753;49.440;11.126;2023-07-29T10:15:56;19.10;96.42
71096;DHT22;58753;49.440;11.126;2023-07-29T10:18:23;19.16;96.33
71096;DHT22;58753;49.440;11.126;2023-07-29T10:20:51;19.22;96.25
71096;DHT22;58753;49.440;11.126;2023-07-29T10:23:21;19.38;96.41
71096;DHT22;58753;49.440;11.126;2023-07-29T10:26:04;19.58;96.54
71096;DHT22;58753;49.440;11.126;2023-07-29T10:28:31;19.69;96.52
71096;DHT22;58753;49.440;11.126;2023-07-29T10:30:57;19.82;96.34
71096;DHT22;58753;49.440;11.126;2023-07-29T10:33:23;19.76;95.79
71096;DHT22;58753;49.440;11.126;2023-07-29T10:35:49;19.70;95.87
71096;DHT22;58753;49.440;11.126;2023-07-29T10:38:16;19.77;96.20
71096;DHT22;58753;49.440;11.126;2023-07-29T10:40:53;19.93;96.26
71096;DHT22;58753;49.440;11.126;2023-07-29T10:45:53;20.20;96.09
71096;DHT22;58753;49.440;11.126;2023-07-29T10:54:09;19.90;95.59
71096;DHT22;58753;49.440;11.126;2023-07-29T10:56:36;19.90;95.74
71096;DHT22;58753;49.440;11.126;2023-07-29T11:01:41;19.90;95.67
71096;DHT22;58753;49.440;11.126;2023-07-29T11:09:52;20.40;95.80
71096;DHT22;58753;49.440;11.126;2023-07-29T11:12:42;20.44;95.60
71096;DHT22;58753;49.440;11.126;2023-07-29T11:17:39;20.63;94.81
71096;DHT22;58753;49.440;11.126;2023-07-29T11:20:08;20.44;94.47
71096;DHT22;58753;49.440;11.126;2023-07-29T11:22:34;20.27;94.69
71096;DHT22;58753;49.440;11.126;2023-07-29T11:25:00;20.21;94.91
71096;DHT22;58753;49.440;11.126;2023-07-29T11:27:27;20.21;94.95
71096;DHT22;58753;49.440;11.126;2023-07-29T11:30:06;20.18;94.58
71096;DHT22;58753;49.440;11.126;2023-07-29T11:32:38;20.03;94.47
71096;DHT22;58753;49.440;11.126;2023-07-29T11:35:17;19.96;94.60
71096;DHT22;58753;49.440;11.126;2023-07-29T11:37:48;19.92;94.86
71096;DHT22;58753;49.440;11.126;2023-07-29T11:40:18;19.63;94.19
71096;DHT22;58753;49.440;11.126;2023-07-29T11:42:45;19.38;94.54
71096;DHT22;58753;49.440;11.126;2023-07-29T11:45:11;19.29;94.96
71096;DHT22;58753;49.440;11.126;2023-07-29T11:47:36;19.28;95.06
71096;DHT22;58753;49.440;11.126;2023-07-29T11:50:08;19.22;94.92
71096;DHT22;58753;49.440;11.126;2023-07-29T11:52:43;19.22;95.20
71096;DHT22;58753;49.440;11.126;2023-07-29T11:55:15;19.29;95.30
71096;DHT22;58753;49.440;11.126;2023-07-29T11:57:41;19.38;95.57
71096;DHT22;58753;49.440;11.126;2023-07-29T12:00:08;19.61;95.85
71096;DHT22;58753;49.440;11.126;2023-07-29T12:02:45;19.79;95.78
71096;DHT22;58753;49.440;11.126;2023-07-29T12:05:12;19.84;95.43
71096;DHT22;58753;49.440;11.126;2023-07-29T12:07:38;19.89;95.46
71096;DHT22;58753;49.440;11.126;2023-07-29T12:10:05;19.97;95.45
71096;DHT22;58753;49.440;11.126;2023-07-29T12:12:33;20.09;95.50
71096;DHT22;58753;49.440;11.126;2023-07-29T12:15:01;20.33;95.57
71096;DHT22;58753;49.440;11.126;2023-07-29T12:17:28;20.45;95.39
71096;DHT22;58753;49.440;11.126;2023-07-29T12:19:54;20.51;95.20
71096;DHT22;58753;49.440;11.126;2023-07-29T12:22:20;20.72;95.41
71096;DHT22;58753;49.440;11.126;2023-07-29T12:24:45;20.95;95.64
71096;DHT22;58753;49.440;11.126;2023-07-29T12:27:12;21.33;95.59
71096;DHT22;58753;49.440;11.126;2023-07-29T12:29:44;21.53;95.00
71096;DHT22;58753;49.440;11.126;2023-07-29T12:32:14;21.67;94.87
71096;DHT22;58753;49.440;11.126;2023-07-29T12:34:39;21.74;94.22
71096;DHT22;58753;49.440;11.126;2023-07-29T12:37:06;22.01;94.63
71096;DHT22;58753;49.440;11.126;2023-07-29T12:39:35;22.15;93.92
71096;DHT22;58753;49.440;11.126;2023-07-29T12:42:04;22.04;93.37
71096;DHT22;58753;49.440;11.126;2023-07-29T12:44:37;21.93;93.08
71096;DHT22;58753;49.440;11.126;2023-07-29T12:47:04;21.94;93.40
71096;DHT22;58753;49.440;11.126;2023-07-29T12:49:30;22.00;92.78
71096;DHT22;58753;49.440;11.126;2023-07-29T12:51:56;22.07;92.07
71096;DHT22;58753;49.440;11.126;2023-07-29T12:54:22;22.22;92.38
71096;DHT22;58753;49.440;11.126;2023-07-29T12:56:50;22.18;91.78
71096;DHT22;58753;49.440;11.126;2023-07-29T12:59:16;22.17;90.26
71096;DHT22;58753;49.440;11.126;2023-07-29T13:01:41;22.24;90.72
71096;DHT22;58753;49.440;11.126;2023-07-29T13:04:10;22.55;91.38
71096;DHT22;58753;49.440;11.126;2023-07-29T13:06:35;22.56;90.31
71096;DHT22;58753;49.440;11.126;2023-07-29T13:09:01;22.55;88.72
71096;DHT22;58753;49.440;11.126;2023-07-29T13:11:26;22.47;88.75
71096;DHT22;58753;49.440;11.126;2023-07-29T13:13:52;22.75;88.09
71096;DHT22;58753;49.440;11.126;2023-07-29T13:16:19;22.58;87.23
71096;DHT22;58753;49.440;11.126;2023-07-29T13:18:47;22.64;86.96
71096;DHT22;58753;49.440;11.126;2023-07-29T13:21:12;22.61;85.74
71096;DHT22;58753;49.440;11.126;2023-07-29T13:23:38;22.56;85.51
71096;DHT22;58753;49.440;11.126;2023-07-29T13:26:03;22.79;86.42
71096;DHT22;58753;49.440;11.126;2023-07-29T13:28:29;22.82;84.56
71096;DHT22;58753;49.440;11.126;2023-07-29T13:30:56;22.73;84.28
71096;DHT22;58753;49.440;11.126;2023-07-29T13:33:24;22.64;83.33
71096;DHT22;58753;49.440;11.126;2023-07-29T13:35:54;22.96;84.18
71096;DHT22;58753;49.440;11.126;2023-07-29T13:38:20;23.30;83.47
71096;DHT22;58753;49.440;11.126;2023-07-29T13:40:45;23.19;80.20
71096;DHT22;58753;49.440;11.126;2023-07-29T13:43:16;23.05;80.00
71096;DHT22;58753;49.440;11.126;2023-07-29T13:45:41;23.37;80.34
71096;DHT22;58753;49.440;11.126;2023-07-29T13:48:06;23.66;79.47
71096;DHT22;58753;49.440;11.126;2023-07-29T13:50:32;23.68;78.60
71096;DHT22;58753;49.440;11.126;2023-07-29T13:52:59;24.14;78.83
71096;DHT22;58753;49.440;11.126;2023-07-29T13:55:25;24.33;77.14
71096;DHT22;58753;49.440;11.126;2023-07-29T13:57:51;24.71;76.93
71096;DHT22;58753;49.440;11.126;2023-07-29T14:00:20;24.52;74.13
71096;DHT22;58753;49.440;11.126;2023-07-29T14:02:45;24.38;73.97
71096;DHT22;58753;49.440;11.126;2023-07-29T14:05:10;24.33;73.24
71096;DHT22;58753;49.440;11.126;2023-07-29T14:07:39;24.62;73.15
71096;DHT22;58753;49.440;11.126;2023-07-29T14:10:07;24.75;71.01
71096;DHT22;58753;49.440;11.126;2023-07-29T14:12:35;24.96;71.27
71096;DHT22;58753;49.440;11.126;2023-07-29T14:15:00;25.20;69.73
71096;DHT22;58753;49.440;11.126;2023-07-29T14:17:28;24.85;67.52
71096;DHT22;58753;49.440;11.126;2023-07-29T14:19:54;24.65;67.45
71096;DHT22;58753;49.440;11.126;2023-07-29T14:22:19;24.39;66.34
71096;DHT22;58753;49.440;11.126;2023-07-29T14:24:44;24.43;67.56
71096;DHT22;58753;49.440;11.126;2023-07-29T14:27:10;24.38;67.78
71096;DHT22;58753;49.440;11.126;2023-07-29T14:29:35;24.31;67.19
71096;DHT22;58753;49.440;11.126;2023-07-29T14:32:03;24.15;66.25
71096;DHT22;58753;49.440;11.126;2023-07-29T14:34:29;24.04;66.46
71096;DHT22;58753;49.440;11.126;2023-07-29T14:36:57;23.94;65.32
71096;DHT22;58753;49.440;11.126;2023-07-29T14:39:24;23.90;65.94
71096;DHT22;58753;49.440;11.126;2023-07-29T14:41:50;24.05;66.89
71096;DHT22;58753;49.440;11.126;2023-07-29T14:44:18;24.20;67.45
71096;DHT22;58753;49.440;11.126;2023-07-29T14:46:43;24.51;67.23
71096;DHT22;58753;49.440;11.126;2023-07-29T14:49:08;24.72;65.33
71096;DHT22;58753;49.440;11.126;2023-07-29T14:51:39;24.82;64.50
71096;DHT22;58753;49.440;11.126;2023-07-29T14:54:04;24.94;64.01
71096;DHT22;58753;49.440;11.126;2023-07-29T14:56:30;24.93;62.28
71096;DHT22;58753;49.440;11.126;2023-07-29T14:58:55;25.33;63.60
71096;DHT22;58753;49.440;11.126;2023-07-29T15:01:21;25.53;63.09
71096;DHT22;58753;49.440;11.126;2023-07-29T15:03:46;25.56;62.27
71096;DHT22;58753;49.440;11.126;2023-07-29T15:06:14;25.34;62.06
71096;DHT22;58753;49.440;11.126;2023-07-29T15:08:41;25.64;62.11
71096;DHT22;58753;49.440;11.126;2023-07-29T15:11:07;25.88;61.49
71096;DHT22;58753;49.440;11.126;2023-07-29T15:13:32;25.98;61.18
71096;DHT22;58753;49.440;11.126;2023-07-29T15:16:00;26.06;59.33
71096;DHT22;58753;49.440;11.126;2023-07-29T15:18:25;26.11;58.69
71096;DHT22;58753;49.440;11.126;2023-07-29T15:20:57;26.11;56.41
71096;DHT22;58753;49.440;11.126;2023-07-29T15:23:26;26.19;57.69
71096;DHT22;58753;49.440;11.126;2023-07-29T15:25:54;26.29;57.41
71096;DHT22;58753;49.440;11.126;2023-07-29T15:28:20;26.26;56.25
71096;DHT22;58753;49.440;11.126;2023-07-29T15:30:45;26.21;57.04
71096;DHT22;58753;49.440;11.126;2023-07-29T15:33:13;26.29;57.18
71096;DHT22;58753;49.440;11.126;2023-07-29T15:35:39;26.22;56.54
71096;DHT22;58753;49.440;11.126;2023-07-29T15:38:12;26.28;57.57
71096;DHT22;58753;49.440;11.126;2023-07-29T15:40:40;26.25;56.72